KFLG/FLG METAR and TAF weather

Enter ICAO airport designator
Station Type Date Time Source
KFLG METAR 2020/09/23 01:57 UTC NOAA

KFLG 230157Z 00000KT 10SM CLR 17/03 A3034 RMK AO2 SLP192 T01670033


Station Type Date Time Source
KFLG Decoded METAR 2020/09/23 01:57 UTC NOAA

FLAGSTAFF PULLIAM AIRPORT, AZ, United States (KFLG) 35-08N 111-40W 2134M
Sep 22, 2020 - 09:57 PM EDT / 2020.09.23 0157 UTC
Wind: Calm:0
Visibility: 10 mile(s):0
Sky conditions: clear
Temperature: 62.1 F (16.7 C)
Dew Point: 37.9 F (3.3 C)
Relative Humidity: 40%
Pressure (altimeter): 30.34 in. Hg (1027 hPa)
ob: KFLG 230157Z 00000KT 10SM CLR 17/03 A3034 RMK AO2 SLP192 T01670033
cycle: 2

Station Type Date Time Source
KFLG TAF 2020/09/22 18:22 UTC NOAA

TAF KFLG 221720Z 2218/2318 23010G16KT P6SM VCSH SCT070 BKN100
FM230100 VRB03KT P6SM SCT100

Example: see airport list